This is the latest recevied weather packets stored in our database for station/object HOWARD. If no packets are shown the sender has not sent any weather packets the latest 10 day(s).
| Time | Temp. | Humidity | Pressure | Rain* | Wind** | Luminosity | Snow |
|---|---|---|---|---|---|---|---|
| 1788363284 | 6.11° C | 69% | 1006.9 hPa | 0 mm | - | - | - |
| 1788362684 | 6.11° C | 69% | 1006.9 hPa | 0 mm | - | - | - |
| 1788362084 | 6.11° C | 69% | 1006.9 hPa | 0.51 mm | - | - | - |
| 1788361484 | 5.56° C | 71% | 1006.9 hPa | 0.76 mm | - | - | - |
| 1788360884 | 5.56° C | 72% | 1007.4 hPa | 0.76 mm | - | - | - |
| 1788360284 | 5.56° C | 74% | 1007.4 hPa | 0.76 mm | - | - | - |
| 1788359684 | 5° C | 74% | 1007.4 hPa | 0.76 mm | - | - | - |
| 1788359084 | 5° C | 73% | 1007.8 hPa | 1.27 mm | - | - | - |
| 1788358484 | 4.44° C | 78% | 1008.6 hPa | 1.02 mm | - | - | - |
| 1788357884 | 4.44° C | 77% | 1008.1 hPa | 0.76 mm | - | - | - |
| 1788357284 | 4.44° C | 78% | 1008 hPa | 0.76 mm | - | - | - |
| 1788356684 | 3.89° C | 81% | 1008 hPa | 0.76 mm | - | - | - |
| 1788356084 | 3.89° C | 81% | 1008.4 hPa | 0.76 mm | - | - | - |
| 1788355484 | 4.44° C | 79% | 1009.2 hPa | 0.25 mm | - | - | - |
| 1788354884 | 5° C | 75% | 1008.8 hPa | 0 mm | - | - | - |
| 1788354284 | 5.56° C | 74% | 1008.7 hPa | 0 mm | - | - | - |
| 1788353684 | 5.56° C | 73% | 1008.5 hPa | 0 mm | - | - | - |
| 1788353084 | 6.11° C | 72% | 1008.9 hPa | 0 mm | - | - | - |
| 1788352517 | 6.11° C | 71% | 1008.8 hPa | 0 mm | - | - | - |
| 1788352484 | 6.11° C | 71% | 1008.8 hPa | 0 mm | - | - | - |
| 1788351884 | 6.11° C | 71% | 1008.8 hPa | 0 mm | - | - | - |
| 1788351347 | 6.11° C | 73% | 1009 hPa | 0 mm | - | - | - |
| 1788351284 | 6.11° C | 73% | 1009 hPa | 0 mm | - | - | - |
| 1788350684 | 7.22° C | 73% | 1008.9 hPa | 0 mm | - | - | - |
| 1788350084 | 7.22° C | 67% | 1009 hPa | 0 mm | - | - | - |
* Rain latest hour (hover to see other rain measurements)
** Current wind speed in m/s (hover to see current wind gust speed)